createdAt,value
2016-12-22T00:00:06.059Z,82.78
2016-12-22T00:00:32.171Z,82.59
2016-12-22T00:00:58.279Z,82.78
2016-12-22T00:01:24.396Z,82.59
2016-12-22T00:01:50.524Z,82.78
2016-12-22T00:02:16.631Z,82.59
2016-12-22T00:02:42.742Z,83.26
2016-12-22T00:03:08.853Z,83.16
2016-12-22T00:03:34.973Z,83.16
2016-12-22T00:04:01.087Z,83.26
2016-12-22T00:04:27.190Z,83.83
2016-12-22T00:04:53.310Z,84.01
2016-12-22T00:05:19.429Z,84.21
2016-12-22T00:05:45.532Z,84.21
2016-12-22T00:06:11.653Z,84.4
2016-12-22T00:06:37.778Z,84.78
2016-12-22T00:07:03.882Z,84.87
2016-12-22T00:07:29.989Z,84.78
2016-12-22T00:07:56.108Z,84.97
2016-12-22T00:08:22.229Z,85.72
2016-12-22T00:08:48.355Z,86.11
2016-12-22T00:09:14.457Z,86.3
2016-12-22T00:09:40.574Z,86.11
2016-12-22T00:10:06.695Z,86.01
2016-12-22T00:10:32.801Z,86.11
2016-12-22T00:10:58.914Z,86.11
2016-12-22T00:11:25.030Z,86.01
2016-12-22T00:11:51.143Z,85.72
2016-12-22T00:12:17.242Z,86.49
2016-12-22T00:12:43.374Z,86.87
2016-12-22T00:13:09.487Z,86.96
2016-12-22T00:13:35.603Z,86.77
2016-12-22T00:14:01.703Z,86.77
2016-12-22T00:14:27.815Z,86.3
2016-12-22T00:14:53.933Z,86.2
2016-12-22T00:15:20.040Z,86.11
2016-12-22T00:15:46.170Z,86.11
2016-12-22T00:16:12.298Z,86.3
2016-12-22T00:16:38.411Z,86.3
2016-12-22T00:17:04.519Z,86.11
2016-12-22T00:17:30.642Z,86.3
2016-12-22T00:17:56.756Z,86.2
2016-12-22T00:18:22.858Z,86.3
2016-12-22T00:18:48.979Z,85.63
2016-12-22T00:19:15.098Z,85.53
2016-12-22T00:19:41.202Z,85.63
2016-12-22T00:20:07.323Z,85.82
2016-12-22T00:20:33.434Z,85.35
2016-12-22T00:20:59.539Z,85.44
2016-12-22T00:21:25.680Z,86.3
2016-12-22T00:21:51.803Z,86.2
2016-12-22T00:22:17.910Z,86.39
2016-12-22T00:22:44.017Z,86.11
2016-12-22T00:23:10.142Z,86.25
2016-12-22T00:23:36.255Z,86.11
2016-12-22T00:24:02.355Z,86.68
2016-12-22T00:24:28.476Z,87.05
2016-12-22T00:24:54.590Z,86.68
2016-12-22T00:25:20.711Z,86.87
2016-12-22T00:25:46.819Z,86.77
2016-12-22T00:26:12.921Z,86.2
2016-12-22T00:26:39.043Z,86.2
2016-12-22T00:27:05.157Z,86.11
2016-12-22T00:27:31.267Z,85.91
2016-12-22T00:27:57.385Z,86.01
2016-12-22T00:28:23.496Z,86.2
2016-12-22T00:28:49.609Z,86.3
2016-12-22T00:29:15.727Z,85.68
2016-12-22T00:29:41.853Z,86.11
2016-12-22T00:30:07.957Z,86.2
2016-12-22T00:30:34.068Z,86.2
2016-12-22T00:31:00.330Z,86.16
2016-12-22T00:31:26.449Z,86.11
2016-12-22T00:31:52.559Z,86.25
2016-12-22T00:32:18.668Z,86.07
2016-12-22T00:32:44.787Z,85.87
2016-12-22T00:33:10.904Z,86.07
2016-12-22T00:33:37.011Z,85.87
2016-12-22T00:34:03.126Z,86.63
2016-12-22T00:34:29.258Z,86.91
2016-12-22T00:34:55.357Z,86.87
2016-12-22T00:35:21.467Z,86.87
2016-12-22T00:35:47.585Z,86.54
2016-12-22T00:36:13.703Z,87.01
2016-12-22T00:36:39.824Z,86.44
2016-12-22T00:37:05.923Z,86.16
2016-12-22T00:37:32.040Z,86.16
2016-12-22T00:37:58.162Z,86.16
2016-12-22T00:38:24.267Z,86.25
2016-12-22T00:38:50.380Z,86.82
2016-12-22T00:39:16.495Z,86.54
2016-12-22T00:39:42.606Z,86.54
2016-12-22T00:40:08.746Z,86.77
2016-12-22T00:40:34.877Z,86.72
2016-12-22T00:41:00.989Z,86.72
2016-12-22T00:41:27.090Z,86.58
2016-12-22T00:41:53.214Z,86.82
2016-12-22T00:42:19.327Z,86.07
2016-12-22T00:42:45.425Z,86.44
2016-12-22T00:43:11.541Z,86.25
2016-12-22T00:43:37.666Z,86.72
2016-12-22T00:44:03.770Z,86.72
2016-12-22T00:44:29.884Z,86.63
2016-12-22T00:44:56.004Z,87.01
2016-12-22T00:45:22.112Z,86.91
2016-12-22T00:45:48.224Z,87.39
2016-12-22T00:46:14.350Z,87.2
2016-12-22T00:46:40.454Z,87.49
2016-12-22T00:47:06.606Z,88.24
2016-12-22T00:47:32.705Z,88.43
2016-12-22T00:47:58.819Z,88.72
2016-12-22T00:48:24.947Z,88.72
2016-12-22T00:48:51.047Z,88.62
2016-12-22T00:49:17.156Z,88.53
2016-12-22T00:49:43.276Z,88.91
2016-12-22T00:50:09.391Z,89.1
2016-12-22T00:50:35.499Z,89.48
2016-12-22T00:51:01.624Z,89.29
2016-12-22T00:51:27.733Z,89.39
2016-12-22T00:51:53.833Z,89.2
2016-12-22T00:52:19.961Z,90.05
2016-12-22T00:52:46.071Z,89.39
2016-12-22T00:53:12.188Z,89.39
2016-12-22T00:53:38.295Z,89.29
2016-12-22T00:54:04.393Z,89.58
2016-12-22T00:54:30.513Z,89.1
2016-12-22T00:54:56.628Z,89.1
2016-12-22T00:55:22.736Z,88.91
2016-12-22T00:55:48.856Z,89.29
2016-12-22T00:56:14.965Z,89.39
2016-12-22T00:56:41.076Z,89.39
2016-12-22T00:57:07.193Z,89.39
2016-12-22T00:57:33.319Z,89.39
2016-12-22T00:57:59.421Z,89.39
2016-12-22T00:58:25.540Z,89.1
2016-12-22T00:58:51.646Z,89.39
2016-12-22T00:59:17.767Z,89.1
2016-12-22T00:59:43.881Z,89.29
2016-12-22T01:00:10.020Z,89.39
2016-12-22T01:00:36.140Z,89.2
2016-12-22T01:01:02.262Z,90.05
2016-12-22T01:01:28.368Z,89.58
2016-12-22T01:01:54.485Z,89.48
2016-12-22T01:02:20.607Z,89.39
2016-12-22T01:02:46.710Z,89.29
2016-12-22T01:03:12.822Z,89.39
2016-12-22T01:03:38.946Z,89.58
2016-12-22T01:04:05.060Z,89
2016-12-22T01:04:31.164Z,88.72
2016-12-22T01:04:57.288Z,88.91
2016-12-22T01:05:23.399Z,88.81
2016-12-22T01:05:49.508Z,89.2
2016-12-22T01:06:15.629Z,89.95
2016-12-22T01:06:41.743Z,90.05
2016-12-22T01:07:07.853Z,90.05
2016-12-22T01:07:33.969Z,89.39
2016-12-22T01:08:00.090Z,89.76
2016-12-22T01:08:26.190Z,90.81
2016-12-22T01:08:52.302Z,90.33
2016-12-22T01:09:18.413Z,89.95
2016-12-22T01:09:44.530Z,89.76
2016-12-22T01:10:10.639Z,90.14
2016-12-22T01:10:36.746Z,90.05
2016-12-22T01:11:02.869Z,90.33
2016-12-22T01:11:28.988Z,90.14
2016-12-22T01:11:55.088Z,89.86
2016-12-22T01:12:21.201Z,89.53
2016-12-22T01:12:47.316Z,89.95
2016-12-22T01:13:13.427Z,90.62
2016-12-22T01:13:39.535Z,90.24
2016-12-22T01:14:05.662Z,89.86
2016-12-22T01:14:31.765Z,89.76
2016-12-22T01:14:57.889Z,90.05
2016-12-22T01:15:23.993Z,90.14
2016-12-22T01:15:50.111Z,89.58
2016-12-22T01:16:16.231Z,89.86
2016-12-22T01:16:42.367Z,90.62
2016-12-22T01:17:08.474Z,90.28
2016-12-22T01:17:34.598Z,90.57
2016-12-22T01:18:00.705Z,89.95
2016-12-22T01:18:26.816Z,89.86
2016-12-22T01:18:52.935Z,89.9
2016-12-22T01:19:19.054Z,89.39
2016-12-22T01:19:45.155Z,89.86
2016-12-22T01:20:11.280Z,89.39
2016-12-22T01:20:37.389Z,90.05
2016-12-22T01:21:03.508Z,89.86
2016-12-22T01:21:29.614Z,89.86
2016-12-22T01:21:55.724Z,89.95
2016-12-22T01:22:21.853Z,90.05
2016-12-22T01:22:47.958Z,89.67
2016-12-22T01:23:14.067Z,89.76
2016-12-22T01:23:40.189Z,90.62
2016-12-22T01:24:06.300Z,89.95
2016-12-22T01:24:32.410Z,89.95
2016-12-22T01:24:58.523Z,90.24
2016-12-22T01:25:24.652Z,90.52
2016-12-22T01:25:50.761Z,90.24
2016-12-22T01:26:16.870Z,90.43
2016-12-22T01:26:42.974Z,89.95
2016-12-22T01:27:09.099Z,90.24
2016-12-22T01:27:35.211Z,90.43
2016-12-22T01:28:01.320Z,90.33
2016-12-22T01:28:27.437Z,90.71
2016-12-22T01:28:53.556Z,91.09
2016-12-22T01:29:19.661Z,91.19
2016-12-22T01:29:45.769Z,91.66
2016-12-22T01:30:11.891Z,91.56
2016-12-22T01:30:37.997Z,91.56
2016-12-22T01:31:04.111Z,91.75
2016-12-22T01:31:30.216Z,92.04
2016-12-22T01:31:56.340Z,92.14
2016-12-22T01:32:22.464Z,91.38
2016-12-22T01:32:48.562Z,91.28
2016-12-22T01:33:14.673Z,91.85
2016-12-22T01:33:40.790Z,91.19
2016-12-22T01:34:06.897Z,91.19
2016-12-22T01:34:33.005Z,91.47
2016-12-22T01:34:59.124Z,91.19
2016-12-22T01:35:25.227Z,91.56
2016-12-22T01:35:51.337Z,91.47
2016-12-22T01:36:17.460Z,91.47
2016-12-22T01:36:43.577Z,91.47
2016-12-22T01:37:09.696Z,91.38
2016-12-22T01:37:35.799Z,91
2016-12-22T01:38:01.906Z,90.81
2016-12-22T01:38:28.032Z,91
2016-12-22T01:38:54.138Z,91
2016-12-22T01:39:20.247Z,91.09
2016-12-22T01:39:46.367Z,91.19
2016-12-22T01:40:12.475Z,91.28
2016-12-22T01:40:38.585Z,91.09
2016-12-22T01:41:04.718Z,91.28
2016-12-22T01:41:30.816Z,90.9
2016-12-22T01:41:56.927Z,91.56
2016-12-22T01:42:23.043Z,91.56
2016-12-22T01:42:49.141Z,91.75
2016-12-22T01:43:15.268Z,91.75
2016-12-22T01:43:41.383Z,91.66
2016-12-22T01:44:07.487Z,91.66
2016-12-22T01:44:33.606Z,91.75
2016-12-22T01:44:59.719Z,91.94
2016-12-22T01:45:25.825Z,91.75
2016-12-22T01:45:51.949Z,92.47
2016-12-22T01:46:18.071Z,92.56
2016-12-22T01:46:44.177Z,92.18
2016-12-22T01:47:10.290Z,92.04
2016-12-22T01:47:36.409Z,91.52
2016-12-22T01:48:02.517Z,91.52
2016-12-22T01:48:28.659Z,91.71
2016-12-22T01:48:54.783Z,91.42
2016-12-22T01:49:20.891Z,91.8
2016-12-22T01:49:46.995Z,92.09
2016-12-22T01:50:13.115Z,91.99
2016-12-22T01:50:39.228Z,91.8
2016-12-22T01:51:05.334Z,91.75
2016-12-22T01:51:31.458Z,92.28
2016-12-22T01:51:57.577Z,92.14
2016-12-22T01:52:23.885Z,91.85
2016-12-22T01:52:50.003Z,91.85
2016-12-22T01:53:16.120Z,91.66
2016-12-22T01:53:42.228Z,91.75
2016-12-22T01:54:08.341Z,92.23
2016-12-22T01:54:34.437Z,91.85
2016-12-22T01:55:00.566Z,92.14
2016-12-22T01:55:26.680Z,92.04
2016-12-22T01:55:52.791Z,92.42
2016-12-22T01:56:18.906Z,92.42
2016-12-22T01:56:45.030Z,92.56
2016-12-22T01:57:11.125Z,92.99
2016-12-22T01:57:37.239Z,92.47
2016-12-22T01:58:03.384Z,92.61
2016-12-22T01:58:29.488Z,92.71
2016-12-22T01:58:55.606Z,92.52
2016-12-22T01:59:21.714Z,92.33
2016-12-22T01:59:47.829Z,92.71
2016-12-22T02:00:13.955Z,92.33
2016-12-22T02:00:40.052Z,92.52
2016-12-22T02:01:06.171Z,92.61
2016-12-22T02:01:32.289Z,92.47
2016-12-22T02:01:58.397Z,92.66
2016-12-22T02:02:24.506Z,92.9
2016-12-22T02:02:50.633Z,93.04
2016-12-22T02:03:16.741Z,92.56
2016-12-22T02:03:42.847Z,92.52
2016-12-22T02:04:08.978Z,92.18
2016-12-22T02:04:35.083Z,92.85
2016-12-22T02:05:01.203Z,92.37
2016-12-22T02:05:27.306Z,92.37
2016-12-22T02:05:53.417Z,92.09
2016-12-22T02:06:19.540Z,92.56
2016-12-22T02:06:45.647Z,92.56
2016-12-22T02:07:11.756Z,92.56
2016-12-22T02:07:37.879Z,92.56
2016-12-22T02:08:04.019Z,92.28
2016-12-22T02:08:30.120Z,92.18
2016-12-22T02:08:56.242Z,92.28
2016-12-22T02:09:22.357Z,92.18
2016-12-22T02:09:48.464Z,92.18
2016-12-22T02:10:14.581Z,91.99
2016-12-22T02:10:40.685Z,92.09
2016-12-22T02:11:06.810Z,91.61
2016-12-22T02:11:32.927Z,91.61
2016-12-22T02:11:59.038Z,92.28
2016-12-22T02:12:25.154Z,91.8
2016-12-22T02:12:51.272Z,91.99
2016-12-22T02:13:17.372Z,92.09
2016-12-22T02:13:43.496Z,91.99
2016-12-22T02:14:09.619Z,92.09
2016-12-22T02:14:35.720Z,91.99
2016-12-22T02:15:01.834Z,92.09
2016-12-22T02:15:27.951Z,91.8
2016-12-22T02:15:54.060Z,91.99
2016-12-22T02:16:20.176Z,92.09
2016-12-22T02:16:46.275Z,91.8
2016-12-22T02:17:12.393Z,91.52
2016-12-22T02:17:38.519Z,91.71
2016-12-22T02:18:04.622Z,91.71
2016-12-22T02:18:30.764Z,91.52
2016-12-22T02:18:56.888Z,91.71
2016-12-22T02:19:22.990Z,91.42
2016-12-22T02:19:49.099Z,92.09
2016-12-22T02:20:15.219Z,91.99
2016-12-22T02:20:41.330Z,91.99
2016-12-22T02:21:07.440Z,91.89
2016-12-22T02:21:33.553Z,92.09
2016-12-22T02:21:59.672Z,91.71
2016-12-22T02:22:25.793Z,91.99
2016-12-22T02:22:51.896Z,91.61
2016-12-22T02:23:18.041Z,91.61
2016-12-22T02:23:44.167Z,91.61
2016-12-22T02:24:10.273Z,92.09
2016-12-22T02:24:36.374Z,92.18
2016-12-22T02:25:02.501Z,92.28
2016-12-22T02:25:28.616Z,91.89
2016-12-22T02:25:54.720Z,91.61
2016-12-22T02:26:20.840Z,91.61
2016-12-22T02:26:46.955Z,91.71
2016-12-22T02:27:13.070Z,91.8
2016-12-22T02:27:39.176Z,91.24
2016-12-22T02:28:05.280Z,91.61
2016-12-22T02:28:31.404Z,92.09
2016-12-22T02:28:57.513Z,91.89
2016-12-22T02:29:23.616Z,92.47
2016-12-22T02:29:49.734Z,92.56
2016-12-22T02:30:15.855Z,92.56
2016-12-22T02:30:41.955Z,92.47
2016-12-22T02:31:08.071Z,92.09
2016-12-22T02:31:34.192Z,91.52
2016-12-22T02:32:00.344Z,91.8
2016-12-22T02:32:26.464Z,92.18
2016-12-22T02:32:52.581Z,92.18
2016-12-22T02:33:18.685Z,91.71
2016-12-22T02:33:44.795Z,91.71
2016-12-22T02:34:10.912Z,91.52
2016-12-22T02:34:37.020Z,91.42
2016-12-22T02:35:03.126Z,91.24
2016-12-22T02:35:29.250Z,91.61
2016-12-22T02:35:55.358Z,91.14
2016-12-22T02:36:21.459Z,91.8
2016-12-22T02:36:47.587Z,91.52
2016-12-22T02:37:13.700Z,91.61
2016-12-22T02:37:39.809Z,91.42
2016-12-22T02:38:05.922Z,91.33
2016-12-22T02:38:32.031Z,91.42
2016-12-22T02:38:58.154Z,91.42
2016-12-22T02:39:24.265Z,91.42
2016-12-22T02:39:50.370Z,91.33
2016-12-22T02:40:16.521Z,91.42
2016-12-22T02:40:42.639Z,91.61
2016-12-22T02:41:08.740Z,91.71
2016-12-22T02:41:34.862Z,90.85
2016-12-22T02:42:00.987Z,91.42
2016-12-22T02:42:27.087Z,91.52
2016-12-22T02:42:53.200Z,91.42
2016-12-22T02:43:19.319Z,91.89
2016-12-22T02:43:45.425Z,91.8
2016-12-22T02:44:11.541Z,92.28
2016-12-22T02:44:37.651Z,91.99
2016-12-22T02:45:03.770Z,92.56
2016-12-22T02:45:29.886Z,92.47
2016-12-22T02:45:55.990Z,91.89
2016-12-22T02:46:22.101Z,91.99
2016-12-22T02:46:48.218Z,92.56
2016-12-22T02:47:14.323Z,92.75
2016-12-22T02:47:40.430Z,92.75
2016-12-22T02:48:06.554Z,93.04
2016-12-22T02:48:32.659Z,93.13
2016-12-22T02:48:58.767Z,93.23
2016-12-22T02:49:24.883Z,93.23
2016-12-22T02:49:50.997Z,93.51
2016-12-22T02:50:17.121Z,92.94
2016-12-22T02:50:43.225Z,93.04
2016-12-22T02:51:09.341Z,93.13
2016-12-22T02:51:35.461Z,92.94
2016-12-22T02:52:01.621Z,93.51
2016-12-22T02:52:27.725Z,93.6
2016-12-22T02:52:53.850Z,93.13
2016-12-22T02:53:19.966Z,93.23
2016-12-22T02:53:46.068Z,93.23
2016-12-22T02:54:12.187Z,92.99
2016-12-22T02:54:38.296Z,93.6
2016-12-22T02:55:04.413Z,93.51
2016-12-22T02:55:30.525Z,93.8
2016-12-22T02:55:56.631Z,94.56
2016-12-22T02:56:22.752Z,94.08
2016-12-22T02:56:48.863Z,93.7
2016-12-22T02:57:14.964Z,94.18
2016-12-22T02:57:41.087Z,94.37
2016-12-22T02:58:07.203Z,94.18
2016-12-22T02:58:33.312Z,94.27
2016-12-22T02:58:59.426Z,94.56
2016-12-22T02:59:25.550Z,94.23
2016-12-22T02:59:51.654Z,94.23
2016-12-22T03:00:17.767Z,94.37
2016-12-22T03:00:43.875Z,94.74
2016-12-22T03:01:09.996Z,94.74
2016-12-22T03:01:36.109Z,94.56
2016-12-22T03:02:02.211Z,94.46
2016-12-22T03:02:28.332Z,94.27
2016-12-22T03:02:54.456Z,94.56
2016-12-22T03:03:20.552Z,93.99
2016-12-22T03:03:46.666Z,94.08
2016-12-22T03:04:12.786Z,94.46
2016-12-22T03:04:38.889Z,94.93
2016-12-22T03:05:05.028Z,94.46
2016-12-22T03:05:31.145Z,94.18
2016-12-22T03:05:57.255Z,94.46
2016-12-22T03:06:23.371Z,94.46
2016-12-22T03:06:49.477Z,94.74
2016-12-22T03:07:15.597Z,94.74
2016-12-22T03:07:41.713Z,94.37
2016-12-22T03:08:07.815Z,94.37
2016-12-22T03:08:33.923Z,94.93
2016-12-22T03:09:00.047Z,94.84
2016-12-22T03:09:26.152Z,95.31
2016-12-22T03:09:52.261Z,95.31
2016-12-22T03:10:18.389Z,95.12
2016-12-22T03:10:44.497Z,95.7
2016-12-22T03:11:10.604Z,95.12
2016-12-22T03:11:36.720Z,94.84
2016-12-22T03:12:02.833Z,94.84
2016-12-22T03:12:28.950Z,94.84
2016-12-22T03:12:55.054Z,94.84
2016-12-22T03:13:21.155Z,95.03
2016-12-22T03:13:47.283Z,94.65
2016-12-22T03:14:13.400Z,94.18
2016-12-22T03:14:39.498Z,94.03
2016-12-22T03:15:05.614Z,93.84
2016-12-22T03:15:31.724Z,93.94
2016-12-22T03:15:57.834Z,94.08
2016-12-22T03:16:23.947Z,94.56
2016-12-22T03:16:50.071Z,94.03
2016-12-22T03:17:16.173Z,94.03
2016-12-22T03:17:42.286Z,94.42
2016-12-22T03:18:08.404Z,94.42
2016-12-22T03:18:34.514Z,94.32
2016-12-22T03:19:00.624Z,94.23
2016-12-22T03:19:26.750Z,94.32
2016-12-22T03:19:52.855Z,94.7
2016-12-22T03:20:18.960Z,94.79
2016-12-22T03:20:45.082Z,94.79
2016-12-22T03:21:11.192Z,95.07
2016-12-22T03:21:37.296Z,95.36
2016-12-22T03:22:03.417Z,94.98
2016-12-22T03:22:29.584Z,94.89
2016-12-22T03:22:55.694Z,95.07
2016-12-22T03:23:21.805Z,95.07
2016-12-22T03:23:47.914Z,95.55
2016-12-22T03:24:14.037Z,94.79
2016-12-22T03:24:40.145Z,94.89
2016-12-22T03:25:06.248Z,95.07
2016-12-22T03:25:32.372Z,95.17
2016-12-22T03:25:58.490Z,94.98
2016-12-22T03:26:24.591Z,95.27
2016-12-22T03:26:50.713Z,95.17
2016-12-22T03:27:16.833Z,95.07
2016-12-22T03:27:42.933Z,94.79
2016-12-22T03:28:09.050Z,94.79
2016-12-22T03:28:35.161Z,95.65
2016-12-22T03:29:01.282Z,95.07
2016-12-22T03:29:27.393Z,95.17
2016-12-22T03:29:53.499Z,95.17
2016-12-22T03:30:19.616Z,95.17
2016-12-22T03:30:45.741Z,95.46
2016-12-22T03:31:11.841Z,95.17
2016-12-22T03:31:37.966Z,95.7
2016-12-22T03:32:04.108Z,95.17
2016-12-22T03:32:30.215Z,95.65
2016-12-22T03:32:56.325Z,95.17
2016-12-22T03:33:22.445Z,95.07
2016-12-22T03:33:48.550Z,94.89
2016-12-22T03:34:14.668Z,95.36
2016-12-22T03:34:40.772Z,94.98
2016-12-22T03:35:06.890Z,94.89
2016-12-22T03:35:33.009Z,94.89
2016-12-22T03:35:59.113Z,94.98
2016-12-22T03:36:25.221Z,94.89
2016-12-22T03:36:51.349Z,94.7
2016-12-22T03:37:17.455Z,94.7
2016-12-22T03:37:43.558Z,95.46
2016-12-22T03:38:09.679Z,94.89
2016-12-22T03:38:35.796Z,95.65
2016-12-22T03:39:01.899Z,95.65
2016-12-22T03:39:28.019Z,95.17
2016-12-22T03:39:54.126Z,94.89
2016-12-22T03:40:20.248Z,95.07
2016-12-22T03:40:46.356Z,94.89
2016-12-22T03:41:12.463Z,95.27
2016-12-22T03:41:38.589Z,94.98
2016-12-22T03:42:04.699Z,94.79
2016-12-22T03:42:30.809Z,95.27
2016-12-22T03:42:56.929Z,95.36
2016-12-22T03:43:23.041Z,94.89
2016-12-22T03:43:49.148Z,95.65
2016-12-22T03:44:15.263Z,95.65
2016-12-22T03:44:41.393Z,95.27
2016-12-22T03:45:07.495Z,95.27
2016-12-22T03:45:33.599Z,95.46
2016-12-22T03:45:59.710Z,95.55
2016-12-22T03:46:25.830Z,95.65
2016-12-22T03:46:51.946Z,95.55
2016-12-22T03:47:18.054Z,95.55
2016-12-22T03:47:44.167Z,95.65
2016-12-22T03:48:10.287Z,95.27
2016-12-22T03:48:36.391Z,94.98
2016-12-22T03:49:02.511Z,95.84
2016-12-22T03:49:28.631Z,95.07
2016-12-22T03:50:01.001Z,94.79
2016-12-22T03:50:27.109Z,95.65
2016-12-22T03:50:53.226Z,95.07
2016-12-22T03:51:19.342Z,95.17
2016-12-22T03:51:45.457Z,95.07
2016-12-22T03:52:11.561Z,94.89
2016-12-22T03:52:37.678Z,95.36
2016-12-22T03:53:03.801Z,94.98
2016-12-22T03:53:29.904Z,95.46
2016-12-22T03:53:56.021Z,95.46
2016-12-22T03:54:22.141Z,94.89
2016-12-22T03:54:48.248Z,95.17
2016-12-22T03:55:14.354Z,95.36
2016-12-22T03:55:40.482Z,95.74
2016-12-22T03:56:06.591Z,95.07
2016-12-22T03:56:32.705Z,94.98
2016-12-22T03:56:58.815Z,94.89
2016-12-22T03:57:24.929Z,94.79
2016-12-22T03:57:51.050Z,95.07
2016-12-22T03:58:17.153Z,94.98
2016-12-22T03:58:43.259Z,94.89
2016-12-22T03:59:09.380Z,94.98
2016-12-22T03:59:35.495Z,95.07
2016-12-22T04:00:01.604Z,94.89
2016-12-22T04:00:27.723Z,94.98
2016-12-22T04:00:53.831Z,95.27
2016-12-22T04:01:19.936Z,95.07
2016-12-22T04:01:46.053Z,95.07
2016-12-22T04:02:12.169Z,95.36
2016-12-22T04:02:38.272Z,95.27
2016-12-22T04:03:04.392Z,95.17
2016-12-22T04:03:30.512Z,95.27
2016-12-22T04:03:56.616Z,94.98
2016-12-22T04:04:22.724Z,94.89
2016-12-22T04:04:48.852Z,94.89
2016-12-22T04:05:14.959Z,95.17
2016-12-22T04:05:41.067Z,94.98
2016-12-22T04:06:07.186Z,95.07
2016-12-22T04:06:33.300Z,94.89
2016-12-22T04:06:59.402Z,95.27
2016-12-22T04:07:25.525Z,95.46
2016-12-22T04:07:51.635Z,95.17
2016-12-22T04:08:17.756Z,95.27
2016-12-22T04:08:43.863Z,95.36
2016-12-22T04:09:09.967Z,95.07
2016-12-22T04:09:36.095Z,94.89
2016-12-22T04:10:02.208Z,95.07
2016-12-22T04:10:28.313Z,95.17
2016-12-22T04:10:54.437Z,95.55
2016-12-22T04:11:20.549Z,95.46
2016-12-22T04:11:46.657Z,95.36
2016-12-22T04:12:12.779Z,95.36
2016-12-22T04:12:38.896Z,95.46
2016-12-22T04:13:05.014Z,95.07
2016-12-22T04:13:31.116Z,94.98
2016-12-22T04:13:57.223Z,95.27
2016-12-22T04:14:23.341Z,95.27
2016-12-22T04:14:49.458Z,95.46
2016-12-22T04:15:15.558Z,94.98
2016-12-22T04:15:41.677Z,95.65
2016-12-22T04:16:07.796Z,96.31
2016-12-22T04:16:33.901Z,96.03
2016-12-22T04:17:00.014Z,95.65
2016-12-22T04:17:26.170Z,95.84
2016-12-22T04:17:52.277Z,96.41
2016-12-22T04:18:18.382Z,95.93
2016-12-22T04:18:44.494Z,96.12
2016-12-22T04:19:10.607Z,96.31
2016-12-22T04:19:36.727Z,95.65
2016-12-22T04:20:02.830Z,95.65
2016-12-22T04:20:28.946Z,95.27
2016-12-22T04:20:55.072Z,95.17
2016-12-22T04:21:21.173Z,95.27
2016-12-22T04:21:47.289Z,95.46
2016-12-22T04:22:13.412Z,95.36
2016-12-22T04:22:39.526Z,95.27
2016-12-22T04:23:05.626Z,95.46
2016-12-22T04:23:31.749Z,95.65
2016-12-22T04:23:57.865Z,95.65
2016-12-22T04:24:23.984Z,95.36
2016-12-22T04:24:50.084Z,96.31
2016-12-22T04:25:16.198Z,96.12
2016-12-22T04:25:42.323Z,96.31
2016-12-22T04:26:08.432Z,96.22
2016-12-22T04:26:34.539Z,95.27
2016-12-22T04:27:00.665Z,95.27
2016-12-22T04:27:26.782Z,95.07
2016-12-22T04:27:52.881Z,95.46
2016-12-22T04:28:19.036Z,95.07
2016-12-22T04:28:45.145Z,95.55
2016-12-22T04:29:11.255Z,95.65
2016-12-22T04:29:37.374Z,95.55
2016-12-22T04:30:03.479Z,95.65
2016-12-22T04:30:29.607Z,95.46
2016-12-22T04:30:55.713Z,95.65
2016-12-22T04:31:21.817Z,95.27
2016-12-22T04:31:47.935Z,95.55
2016-12-22T04:32:14.047Z,95.55
2016-12-22T04:32:40.152Z,95.07
2016-12-22T04:33:06.268Z,95.27
2016-12-22T04:33:32.395Z,95.27
2016-12-22T04:33:58.496Z,95.27
2016-12-22T04:34:24.612Z,95.07
2016-12-22T04:34:50.730Z,95.46
2016-12-22T04:35:16.836Z,95.07
2016-12-22T04:35:42.952Z,95.07
2016-12-22T04:36:09.058Z,95.07
2016-12-22T04:36:35.175Z,95.27
2016-12-22T04:37:01.293Z,95.07
2016-12-22T04:37:27.395Z,95.36
2016-12-22T04:37:53.510Z,95.07
2016-12-22T04:38:19.631Z,95.46
2016-12-22T04:38:45.736Z,94.89
2016-12-22T04:39:11.845Z,95.27
2016-12-22T04:39:37.966Z,95.17
2016-12-22T04:40:04.077Z,95.27
2016-12-22T04:40:30.187Z,95.07
2016-12-22T04:40:56.302Z,95.36
2016-12-22T04:41:22.419Z,94.89
2016-12-22T04:41:48.542Z,94.98
2016-12-22T04:42:14.647Z,95.65
2016-12-22T04:42:40.759Z,94.98
2016-12-22T04:43:06.875Z,95.17
2016-12-22T04:43:32.987Z,95.65
2016-12-22T04:43:59.087Z,95.65
2016-12-22T04:44:25.214Z,95.65
2016-12-22T04:44:51.323Z,95.46
2016-12-22T04:45:17.434Z,95.27
2016-12-22T04:45:43.550Z,95.46
2016-12-22T04:46:09.663Z,95.36
2016-12-22T04:46:35.771Z,95.27
2016-12-22T04:47:01.887Z,95.17
2016-12-22T04:47:28.013Z,95.46
2016-12-22T04:47:54.111Z,95.65
2016-12-22T04:48:20.230Z,95.65
2016-12-22T04:48:46.355Z,95.55
2016-12-22T04:49:12.462Z,95.74
2016-12-22T04:49:38.568Z,95.84
2016-12-22T04:50:04.696Z,95.55
2016-12-22T04:50:30.806Z,96.31
2016-12-22T04:50:56.911Z,96.22
2016-12-22T04:51:23.035Z,95.74
2016-12-22T04:51:49.140Z,96.22
2016-12-22T04:52:15.261Z,95.93
2016-12-22T04:52:41.365Z,95.74
2016-12-22T04:53:07.505Z,96.31
2016-12-22T04:53:33.629Z,95.65
2016-12-22T04:53:59.733Z,96.31
2016-12-22T04:54:25.840Z,96.31
2016-12-22T04:54:51.966Z,95.46
2016-12-22T04:55:18.078Z,95.17
2016-12-22T04:55:44.178Z,95.65
2016-12-22T04:56:10.302Z,95.27
2016-12-22T04:56:36.414Z,95.27
2016-12-22T04:57:02.521Z,95.46
2016-12-22T04:57:28.640Z,95.17
2016-12-22T04:57:54.738Z,95.36
2016-12-22T04:58:20.865Z,95.27
2016-12-22T04:58:46.974Z,95.27
2016-12-22T04:59:13.078Z,95.46
2016-12-22T04:59:39.205Z,94.98
2016-12-22T05:00:05.322Z,94.98
2016-12-22T05:00:31.427Z,95.27
2016-12-22T05:00:57.545Z,95.07
2016-12-22T05:01:23.672Z,95.07
2016-12-22T05:01:49.772Z,94.79
2016-12-22T05:02:15.883Z,94.7
2016-12-22T05:02:42.003Z,94.89
2016-12-22T05:03:08.107Z,94.6
2016-12-22T05:03:34.233Z,94.89
2016-12-22T05:04:00.331Z,94.7
2016-12-22T05:04:26.451Z,94.42
2016-12-22T05:04:52.571Z,94.51
2016-12-22T05:05:18.676Z,94.51
2016-12-22T05:05:44.791Z,94.98
2016-12-22T05:06:10.918Z,94.89
2016-12-22T05:06:37.019Z,94.7
2016-12-22T05:07:03.129Z,95.07
2016-12-22T05:07:29.251Z,95.46
2016-12-22T05:07:55.364Z,95.36
2016-12-22T05:08:21.469Z,95.36
2016-12-22T05:08:47.584Z,94.89
2016-12-22T05:09:13.696Z,94.98
2016-12-22T05:09:39.821Z,94.89
2016-12-22T05:10:05.925Z,95.07
2016-12-22T05:10:32.037Z,94.7
2016-12-22T05:10:58.155Z,94.7
2016-12-22T05:11:24.262Z,94.6
2016-12-22T05:11:50.369Z,94.6
2016-12-22T05:12:16.494Z,94.6
2016-12-22T05:12:42.604Z,94.51
2016-12-22T05:13:08.706Z,94.79
2016-12-22T05:13:34.824Z,94.98
2016-12-22T05:14:00.933Z,95.36
2016-12-22T05:14:27.048Z,94.7
2016-12-22T05:14:53.159Z,94.98
2016-12-22T05:15:19.257Z,94.79
2016-12-22T05:15:45.388Z,95.07
2016-12-22T05:16:11.494Z,95.27
2016-12-22T05:16:37.604Z,94.89
2016-12-22T05:17:03.724Z,95.17
2016-12-22T05:17:29.845Z,94.98
2016-12-22T05:17:55.949Z,94.98
2016-12-22T05:18:22.072Z,94.79
2016-12-22T05:18:48.194Z,94.13
2016-12-22T05:19:14.294Z,94.42
2016-12-22T05:19:40.408Z,94.23
2016-12-22T05:20:06.508Z,94.89
2016-12-22T05:20:32.636Z,94.98
2016-12-22T05:20:58.748Z,95.27
2016-12-22T05:21:24.856Z,95.07
2016-12-22T05:21:50.968Z,94.98
2016-12-22T05:22:17.088Z,94.98
2016-12-22T05:22:43.196Z,95.17
2016-12-22T05:23:09.312Z,94.7
2016-12-22T05:23:35.435Z,95.17
2016-12-22T05:24:01.534Z,94.89
2016-12-22T05:24:27.647Z,94.79
2016-12-22T05:24:53.766Z,95.27
2016-12-22T05:25:19.874Z,95.17
2016-12-22T05:25:45.997Z,95.17
2016-12-22T05:26:12.091Z,95.17
2016-12-22T05:26:38.206Z,95.46
2016-12-22T05:27:04.327Z,95.46
2016-12-22T05:27:30.435Z,95.07
2016-12-22T05:27:56.546Z,94.89
2016-12-22T05:28:22.671Z,95.55
2016-12-22T05:28:48.778Z,95.27
2016-12-22T05:29:14.885Z,95.27
2016-12-22T05:29:41.009Z,95.07
2016-12-22T05:30:07.121Z,95.07
2016-12-22T05:30:33.223Z,95.07
2016-12-22T05:30:59.347Z,95.74
2016-12-22T05:31:25.467Z,95.17
2016-12-22T05:31:51.571Z,94.98
2016-12-22T05:32:17.688Z,95.46
2016-12-22T05:32:43.809Z,95.46
2016-12-22T05:33:09.914Z,95.36
2016-12-22T05:33:36.031Z,95.36
2016-12-22T05:34:02.151Z,95.55
2016-12-22T05:34:28.254Z,95.55
2016-12-22T05:34:54.368Z,95.46
2016-12-22T05:35:20.485Z,95.36
2016-12-22T05:35:46.593Z,95.36
2016-12-22T05:36:12.703Z,94.89
2016-12-22T05:36:38.823Z,95.27
2016-12-22T05:37:04.933Z,95.46